createdAt,value
2023-02-22T00:00:57.169Z,9.94
2023-02-22T00:01:57.164Z,9.91
2023-02-22T00:02:57.200Z,9.94
2023-02-22T00:03:57.149Z,9.99
2023-02-22T00:04:57.166Z,9.95
2023-02-22T00:05:57.149Z,9.95
2023-02-22T00:06:57.134Z,9.91
2023-02-22T00:07:57.122Z,9.98
2023-02-22T00:08:57.112Z,9.89
2023-02-22T00:09:57.098Z,9.94
2023-02-22T00:10:57.091Z,9.92
2023-02-22T00:11:57.076Z,9.91
2023-02-22T00:12:57.052Z,9.91
2023-02-22T00:13:57.078Z,9.92
2023-02-22T00:14:57.061Z,9.87
2023-02-22T00:15:57.164Z,9.82
2023-02-22T00:16:56.995Z,9.89
2023-02-22T00:17:57.018Z,9.91
2023-02-22T00:18:57.193Z,9.79
2023-02-22T00:19:56.974Z,9.87
2023-02-22T00:20:56.969Z,9.80
2023-02-22T00:21:56.949Z,9.82
2023-02-22T00:22:56.965Z,9.82
2023-02-22T00:23:56.954Z,9.83
2023-02-22T00:24:56.948Z,9.84
2023-02-22T00:25:56.937Z,9.94
2023-02-22T00:26:56.940Z,9.87
2023-02-22T00:27:56.915Z,9.94
2023-02-22T00:28:56.928Z,9.91
2023-02-22T00:29:56.859Z,9.80
2023-02-22T00:30:56.902Z,9.92
2023-02-22T00:31:57.003Z,9.87
2023-02-22T00:32:56.877Z,9.79
2023-02-22T00:33:57.068Z,9.83
2023-02-22T00:34:56.872Z,9.86
2023-02-22T00:35:56.857Z,9.83
2023-02-22T00:36:56.837Z,9.87
2023-02-22T00:37:56.815Z,9.80
2023-02-22T00:38:56.789Z,9.84
2023-02-22T00:39:56.793Z,9.82
2023-02-22T00:40:56.797Z,9.80
2023-02-22T00:41:56.860Z,9.84
2023-02-22T00:42:56.774Z,9.77
2023-02-22T00:43:56.722Z,9.83
2023-02-22T00:44:56.737Z,9.82
2023-02-22T00:45:56.754Z,9.84
2023-02-22T00:46:56.743Z,9.80
2023-02-22T00:47:56.677Z,9.84
2023-02-22T00:48:56.918Z,9.84
2023-02-22T00:49:56.668Z,9.82
2023-02-22T00:50:56.701Z,9.79
2023-02-22T00:51:56.673Z,9.80
2023-02-22T00:52:56.668Z,9.77
2023-02-22T00:53:56.643Z,9.80
2023-02-22T00:54:56.821Z,9.82
2023-02-22T00:55:56.634Z,9.77
2023-02-22T00:56:56.592Z,9.72
2023-02-22T00:57:56.626Z,9.73
2023-02-22T00:58:56.569Z,9.76
2023-02-22T00:59:56.587Z,9.72
2023-02-22T01:00:56.763Z,9.74
2023-02-22T01:01:56.580Z,9.77
2023-02-22T01:02:56.875Z,9.72
2023-02-22T01:03:56.538Z,9.65
2023-02-22T01:04:56.693Z,9.73
2023-02-22T01:05:56.580Z,9.74
2023-02-22T01:06:56.518Z,9.77
2023-02-22T01:07:56.530Z,9.73
2023-02-22T01:08:56.506Z,9.79
2023-02-22T01:09:56.483Z,9.82
2023-02-22T01:10:56.480Z,9.80
2023-02-22T01:11:56.443Z,9.79
2023-02-22T01:12:56.456Z,9.80
2023-02-22T01:13:56.478Z,9.82
2023-02-22T01:14:56.442Z,9.86
2023-02-22T01:15:56.424Z,9.77
2023-02-22T01:16:56.467Z,9.76
2023-02-22T01:17:56.385Z,9.80
2023-02-22T01:18:56.404Z,9.76
2023-02-22T01:19:56.398Z,9.79
2023-02-22T01:20:56.367Z,9.79
2023-02-22T01:21:56.362Z,9.80
2023-02-22T01:22:56.376Z,9.79
2023-02-22T01:23:56.370Z,9.79
2023-02-22T01:24:56.337Z,9.77
2023-02-22T01:25:56.358Z,9.87
2023-02-22T01:26:56.314Z,9.82
2023-02-22T01:27:56.368Z,9.83
2023-02-22T01:28:56.294Z,9.86
2023-02-22T01:29:56.279Z,9.82
2023-02-22T01:30:56.788Z,9.84
2023-02-22T01:31:56.319Z,9.77
2023-02-22T01:32:56.268Z,9.80
2023-02-22T01:33:56.289Z,9.79
2023-02-22T01:34:56.245Z,9.91
2023-02-22T01:35:56.217Z,9.82
2023-02-22T01:36:56.182Z,9.94
2023-02-22T01:37:56.194Z,9.83
2023-02-22T01:38:56.180Z,9.79
2023-02-22T01:39:56.177Z,9.83
2023-02-22T01:40:56.139Z,9.83
2023-02-22T01:41:56.156Z,9.82
2023-02-22T01:42:56.138Z,9.84
2023-02-22T01:43:56.121Z,9.80
2023-02-22T01:44:56.132Z,9.84
2023-02-22T01:45:56.133Z,9.95
2023-02-22T01:46:56.305Z,9.82
2023-02-22T01:47:56.081Z,9.83
2023-02-22T01:48:56.070Z,9.82
2023-02-22T01:49:56.068Z,9.86
2023-02-22T01:50:56.085Z,9.82
2023-02-22T01:51:56.033Z,9.77
2023-02-22T01:52:56.013Z,9.83
2023-02-22T01:53:56.021Z,9.87
2023-02-22T01:54:55.990Z,9.80
2023-02-22T01:55:55.999Z,9.86
2023-02-22T01:56:56.012Z,9.83
2023-02-22T01:57:55.982Z,9.83
2023-02-22T01:58:55.999Z,9.79
2023-02-22T01:59:55.962Z,9.80
2023-02-22T02:00:55.935Z,9.84
2023-02-22T02:01:55.956Z,9.82
2023-02-22T02:02:55.934Z,9.79
2023-02-22T02:03:55.936Z,9.80
2023-02-22T02:04:55.981Z,9.79
2023-02-22T02:05:55.933Z,9.87
2023-02-22T02:06:55.904Z,9.80
2023-02-22T02:07:55.911Z,9.82
2023-02-22T02:08:55.869Z,9.84
2023-02-22T02:09:55.888Z,9.83
2023-02-22T02:10:55.853Z,9.82
2023-02-22T02:11:55.823Z,9.80
2023-02-22T02:12:55.960Z,9.86
2023-02-22T02:13:55.848Z,9.86
2023-02-22T02:14:55.809Z,9.83
2023-02-22T02:15:55.817Z,9.80
2023-02-22T02:16:55.845Z,9.86
2023-02-22T02:17:55.779Z,9.84
2023-02-22T02:18:55.742Z,9.84
2023-02-22T02:19:55.778Z,9.83
2023-02-22T02:20:55.763Z,9.83
2023-02-22T02:21:55.758Z,9.79
2023-02-22T02:22:55.758Z,9.84
2023-02-22T02:23:55.703Z,9.80
2023-02-22T02:24:55.710Z,9.77
2023-02-22T02:25:55.709Z,9.79
2023-02-22T02:26:55.668Z,9.77
2023-02-22T02:27:55.691Z,9.83
2023-02-22T02:28:55.726Z,9.73
2023-02-22T02:29:55.692Z,9.76
2023-02-22T02:30:55.659Z,9.80
2023-02-22T02:31:55.776Z,9.72
2023-02-22T02:32:55.626Z,9.77
2023-02-22T02:33:55.654Z,9.80
2023-02-22T02:34:55.644Z,9.77
2023-02-22T02:35:55.580Z,9.74
2023-02-22T02:36:55.652Z,9.65
2023-02-22T02:37:55.568Z,9.74
2023-02-22T02:38:55.921Z,9.64
2023-02-22T02:39:55.590Z,9.74
2023-02-22T02:40:55.548Z,9.69
2023-02-22T02:41:55.560Z,9.73
2023-02-22T02:42:55.556Z,9.77
2023-02-22T02:43:55.511Z,9.79
2023-02-22T02:44:55.539Z,9.76
2023-02-22T02:45:55.489Z,9.77
2023-02-22T02:46:55.535Z,9.76
2023-02-22T02:47:55.450Z,9.69
2023-02-22T02:48:55.465Z,9.68
2023-02-22T02:49:55.469Z,9.73
2023-02-22T02:50:55.464Z,9.62
2023-02-22T02:51:55.428Z,9.77
2023-02-22T02:52:55.451Z,9.72
2023-02-22T02:53:55.403Z,9.74
2023-02-22T02:54:55.439Z,9.65
2023-02-22T02:55:55.399Z,9.66
2023-02-22T02:56:55.373Z,9.61
2023-02-22T02:57:55.355Z,9.65
2023-02-22T02:58:55.354Z,9.69
2023-02-22T02:59:55.333Z,9.76
2023-02-22T03:00:55.351Z,9.68
2023-02-22T03:01:55.372Z,9.72
2023-02-22T03:02:55.294Z,9.68
2023-02-22T03:03:55.298Z,9.56
2023-02-22T03:04:55.294Z,9.65
2023-02-22T03:05:55.285Z,9.61
2023-02-22T03:06:55.285Z,9.55
2023-02-22T03:07:55.267Z,9.58
2023-02-22T03:08:55.239Z,9.68
2023-02-22T03:09:55.249Z,9.61
2023-02-22T03:10:55.261Z,9.62
2023-02-22T03:11:55.225Z,9.62
2023-02-22T03:12:55.228Z,9.58
2023-02-22T03:13:55.223Z,9.61
2023-02-22T03:14:55.217Z,9.61
2023-02-22T03:15:55.385Z,9.64
2023-02-22T03:16:55.199Z,9.65
2023-02-22T03:17:55.152Z,9.61
2023-02-22T03:18:55.182Z,9.61
2023-02-22T03:19:55.134Z,9.61
2023-02-22T03:20:55.211Z,9.59
2023-02-22T03:21:55.119Z,9.64
2023-02-22T03:22:55.320Z,9.64
2023-02-22T03:23:55.092Z,9.59
2023-02-22T03:24:55.303Z,9.62
2023-02-22T03:25:55.082Z,9.61
2023-02-22T03:26:55.123Z,9.56
2023-02-22T03:27:55.066Z,9.61
2023-02-22T03:28:55.041Z,9.58
2023-02-22T03:29:55.051Z,9.64
2023-02-22T03:30:55.091Z,9.59
2023-02-22T03:31:55.075Z,9.64
2023-02-22T03:32:55.007Z,9.62
2023-02-22T03:33:55.024Z,9.58
2023-02-22T03:34:55.004Z,9.58
2023-02-22T03:35:55.004Z,9.61
2023-02-22T03:36:54.980Z,9.61
2023-02-22T03:37:54.947Z,9.61
2023-02-22T03:38:54.952Z,9.55
2023-02-22T03:39:54.961Z,9.58
2023-02-22T03:40:54.945Z,9.62
2023-02-22T03:41:54.913Z,9.62
2023-02-22T03:42:54.916Z,9.58
2023-02-22T03:43:54.913Z,9.61
2023-02-22T03:44:54.889Z,9.59
2023-02-22T03:45:54.892Z,9.62
2023-02-22T03:46:54.875Z,9.58
2023-02-22T03:47:54.845Z,9.58
2023-02-22T03:48:54.874Z,9.58
2023-02-22T03:49:54.843Z,9.61
2023-02-22T03:50:54.844Z,9.58
2023-02-22T03:51:54.855Z,9.58
2023-02-22T03:52:54.812Z,9.61
2023-02-22T03:53:54.813Z,9.62
2023-02-22T03:54:54.783Z,9.56
2023-02-22T03:55:54.777Z,9.59
2023-02-22T03:56:54.752Z,9.59
2023-02-22T03:57:54.738Z,9.54
2023-02-22T03:58:54.746Z,9.62
2023-02-22T03:59:54.718Z,9.50
2023-02-22T04:00:54.730Z,9.58
2023-02-22T04:01:54.739Z,9.59
2023-02-22T04:02:54.877Z,9.55
2023-02-22T04:03:54.715Z,9.48
2023-02-22T04:04:54.723Z,9.56
2023-02-22T04:05:54.706Z,9.58
2023-02-22T04:06:54.710Z,9.62
2023-02-22T04:07:54.696Z,9.64
2023-02-22T04:08:54.627Z,9.56
2023-02-22T04:09:54.672Z,9.61
2023-02-22T04:10:54.729Z,9.61
2023-02-22T04:11:54.665Z,9.66
2023-02-22T04:12:54.634Z,9.64
2023-02-22T04:13:54.594Z,9.59
2023-02-22T04:14:54.629Z,9.61
2023-02-22T04:15:54.616Z,9.48
2023-02-22T04:16:54.564Z,9.59
2023-02-22T04:17:54.562Z,9.61
2023-02-22T04:18:54.573Z,9.59
2023-02-22T04:19:54.546Z,9.54
2023-02-22T04:20:54.514Z,9.54
2023-02-22T04:21:54.509Z,9.54
2023-02-22T04:22:54.515Z,9.55
2023-02-22T04:23:54.491Z,9.56
2023-02-22T04:24:54.478Z,9.51
2023-02-22T04:25:54.516Z,9.55
2023-02-22T04:26:54.522Z,9.51
2023-02-22T04:27:54.450Z,9.59
2023-02-22T04:28:54.418Z,9.62
2023-02-22T04:29:54.483Z,9.65
2023-02-22T04:30:54.516Z,9.59
2023-02-22T04:31:54.447Z,9.59
2023-02-22T04:32:54.423Z,9.59
2023-02-22T04:33:54.382Z,9.59
2023-02-22T04:34:54.417Z,9.59
2023-02-22T04:35:54.385Z,9.61
2023-02-22T04:36:54.387Z,9.55
2023-02-22T04:37:54.352Z,9.56
2023-02-22T04:38:54.371Z,9.59
2023-02-22T04:39:54.380Z,9.48
2023-02-22T04:40:54.308Z,9.51
2023-02-22T04:41:54.322Z,9.47
2023-02-22T04:42:54.312Z,9.54
2023-02-22T04:43:54.332Z,9.47
2023-02-22T04:44:54.319Z,9.47
2023-02-22T04:45:54.328Z,9.48
2023-02-22T04:46:54.308Z,9.43
2023-02-22T04:47:54.267Z,9.51
2023-02-22T04:48:54.242Z,9.41
2023-02-22T04:49:54.302Z,9.34
2023-02-22T04:50:54.226Z,9.40
2023-02-22T04:51:54.210Z,9.36
2023-02-22T04:52:54.237Z,9.31
2023-02-22T04:53:54.238Z,9.32
2023-02-22T04:54:54.272Z,9.19
2023-02-22T04:55:54.145Z,9.28
2023-02-22T04:56:54.197Z,9.23
2023-02-22T04:57:54.163Z,9.19
2023-02-22T04:58:54.167Z,9.19
2023-02-22T04:59:54.227Z,9.22
2023-02-22T05:00:54.106Z,9.19
2023-02-22T05:01:54.101Z,9.22
2023-02-22T05:02:54.157Z,9.21
2023-02-22T05:03:54.090Z,9.16
2023-02-22T05:04:54.081Z,9.14
2023-02-22T05:05:54.067Z,9.14
2023-02-22T05:06:55.053Z,9.13
2023-02-22T05:07:54.010Z,9.13
2023-02-22T05:08:54.040Z,9.11
2023-02-22T05:09:54.022Z,9.11
2023-02-22T05:10:54.003Z,9.11
2023-02-22T05:11:53.998Z,9.04
2023-02-22T05:12:53.979Z,9.08
2023-02-22T05:13:53.978Z,9.08
2023-02-22T05:14:54.059Z,9.10
2023-02-22T05:15:53.980Z,9.06
2023-02-22T05:16:53.948Z,9.13
2023-02-22T05:17:53.985Z,9.02
2023-02-22T05:18:54.175Z,9.00
2023-02-22T05:19:53.900Z,9.06
2023-02-22T05:20:53.878Z,9.08
2023-02-22T05:21:53.884Z,8.99
2023-02-22T05:22:53.878Z,9.03
2023-02-22T05:23:53.930Z,8.89
2023-02-22T05:24:53.849Z,9.00
2023-02-22T05:25:53.854Z,9.04
2023-02-22T05:26:53.873Z,9.00
2023-02-22T05:27:53.872Z,9.03
2023-02-22T05:28:53.797Z,9.03
2023-02-22T05:29:53.809Z,9.03
2023-02-22T05:30:53.972Z,9.00
2023-02-22T05:31:53.889Z,9.10
2023-02-22T05:32:53.947Z,9.06
2023-02-22T05:33:53.728Z,9.03
2023-02-22T05:34:53.774Z,9.03
2023-02-22T05:35:53.943Z,9.04
2023-02-22T05:36:53.706Z,9.02
2023-02-22T05:37:53.713Z,9.06
2023-02-22T05:38:53.702Z,9.06
2023-02-22T05:39:53.674Z,9.08
2023-02-22T05:40:53.676Z,9.06
2023-02-22T05:41:53.656Z,9.06
2023-02-22T05:42:53.683Z,9.02
2023-02-22T05:43:53.670Z,9.06
2023-02-22T05:44:53.650Z,9.03
2023-02-22T05:45:53.611Z,9.03
2023-02-22T05:46:53.649Z,8.99
2023-02-22T05:47:53.588Z,9.03
2023-02-22T05:48:53.592Z,9.06
2023-02-22T05:49:53.580Z,8.94
2023-02-22T05:50:53.597Z,9.08
2023-02-22T05:51:53.796Z,9.14
2023-02-22T05:52:53.552Z,9.08
2023-02-22T05:53:53.557Z,9.06
2023-02-22T05:54:53.548Z,9.11
2023-02-22T05:55:53.528Z,9.08
2023-02-22T05:56:53.497Z,9.16
2023-02-22T05:57:53.472Z,9.11
2023-02-22T05:58:53.478Z,9.11
2023-02-22T05:59:53.449Z,9.16
2023-02-22T06:00:53.562Z,9.10
2023-02-22T06:01:53.529Z,9.08
2023-02-22T06:02:53.451Z,9.14
2023-02-22T06:03:53.433Z,9.03
2023-02-22T06:04:53.640Z,9.10
2023-02-22T06:05:53.423Z,9.18
2023-02-22T06:06:53.422Z,9.10
2023-02-22T06:07:53.410Z,9.03
2023-02-22T06:08:53.404Z,9.14
2023-02-22T06:09:53.356Z,9.06
2023-02-22T06:10:53.361Z,9.04
2023-02-22T06:11:54.529Z,8.95
2023-02-22T06:12:53.368Z,9.13
2023-02-22T06:13:53.334Z,9.03
2023-02-22T06:14:53.324Z,9.11
2023-02-22T06:15:53.335Z,9.13
2023-02-22T06:16:53.308Z,9.11
2023-02-22T06:17:53.279Z,9.08
2023-02-22T06:18:53.266Z,9.16
2023-02-22T06:19:53.290Z,9.06
2023-02-22T06:20:53.270Z,9.13
2023-02-22T06:21:53.224Z,9.06
2023-02-22T06:22:53.280Z,9.03
2023-02-22T06:23:53.198Z,9.02
2023-02-22T06:24:55.032Z,9.03
2023-02-22T06:25:53.184Z,9.14
2023-02-22T06:26:53.222Z,9.02
2023-02-22T06:27:53.150Z,9.10
2023-02-22T06:28:53.187Z,9.04
2023-02-22T06:29:53.161Z,9.08
2023-02-22T06:30:53.136Z,9.02
2023-02-22T06:31:53.279Z,9.04
2023-02-22T06:32:53.139Z,9.04
2023-02-22T06:33:53.126Z,9.10
2023-02-22T06:34:53.115Z,9.08
2023-02-22T06:35:53.105Z,9.08
2023-02-22T06:36:53.095Z,9.02
2023-02-22T06:37:53.109Z,9.03
2023-02-22T06:38:53.090Z,8.97
2023-02-22T06:39:53.081Z,8.99
2023-02-22T06:40:53.080Z,8.91
2023-02-22T06:41:53.044Z,9.00
2023-02-22T06:42:53.011Z,8.95
2023-02-22T06:43:52.992Z,8.97
2023-02-22T06:44:53.000Z,9.04
2023-02-22T06:45:53.157Z,9.08
2023-02-22T06:46:52.963Z,9.18
2023-02-22T06:47:52.961Z,9.03
2023-02-22T06:48:53.032Z,9.10
2023-02-22T06:49:52.934Z,9.14
2023-02-22T06:50:52.951Z,9.19
2023-02-22T06:51:52.893Z,9.21
2023-02-22T06:52:52.910Z,9.26
2023-02-22T06:53:52.895Z,9.19
2023-02-22T06:54:52.929Z,9.28
2023-02-22T06:55:52.887Z,9.25
2023-02-22T06:56:52.848Z,9.32
2023-02-22T06:57:52.867Z,9.39
2023-02-22T06:58:52.865Z,9.34
2023-02-22T06:59:52.838Z,9.29
2023-02-22T07:00:52.972Z,9.21
2023-02-22T07:01:52.821Z,9.25
2023-02-22T07:02:52.802Z,9.28
2023-02-22T07:03:52.808Z,9.36
2023-02-22T07:04:52.810Z,9.36
2023-02-22T07:05:52.754Z,9.39
2023-02-22T07:06:52.761Z,9.32
2023-02-22T07:07:52.736Z,9.51
2023-02-22T07:08:52.789Z,9.47
2023-02-22T07:09:52.732Z,9.58
2023-02-22T07:10:52.786Z,9.62
2023-02-22T07:11:52.709Z,10.12
2023-02-22T07:12:52.716Z,10.76
2023-02-22T07:13:52.716Z,11.35
2023-02-22T07:14:52.680Z,11.95
2023-02-22T07:15:52.677Z,12.24
2023-02-22T07:16:52.686Z,12.64
2023-02-22T07:17:52.665Z,13.11
2023-02-22T07:18:52.649Z,13.75
2023-02-22T07:19:52.647Z,14.29
2023-02-22T07:20:52.636Z,14.55
2023-02-22T07:21:52.624Z,15.06
2023-02-22T07:22:53.443Z,15.37
2023-02-22T07:23:52.581Z,15.65
2023-02-22T07:24:52.598Z,15.90
2023-02-22T07:25:52.594Z,15.98
2023-02-22T07:26:52.616Z,16.13
2023-02-22T07:27:52.595Z,16.26
2023-02-22T07:28:52.619Z,16.21
2023-02-22T07:29:52.594Z,16.08
2023-02-22T07:30:52.577Z,15.73
2023-02-22T07:31:52.602Z,15.24
2023-02-22T07:32:52.647Z,15.04
2023-02-22T07:33:52.535Z,15.09
2023-02-22T07:34:52.581Z,15.09
2023-02-22T07:35:52.530Z,15.22
2023-02-22T07:36:52.521Z,15.51
2023-02-22T07:37:55.411Z,15.61
2023-02-22T07:38:52.530Z,15.67
2023-02-22T07:39:52.506Z,15.35
2023-02-22T07:40:52.555Z,15.03
2023-02-22T07:41:52.554Z,15.15
2023-02-22T07:42:52.537Z,15.11
2023-02-22T07:43:52.498Z,15.21
2023-02-22T07:44:52.500Z,14.97
2023-02-22T07:45:52.544Z,14.92
2023-02-22T07:46:52.517Z,14.45
2023-02-22T07:47:52.489Z,14.63
2023-02-22T07:48:52.457Z,14.66
2023-02-22T07:49:52.489Z,14.25
2023-02-22T07:50:52.480Z,14.18
2023-02-22T07:51:52.466Z,14.29
2023-02-22T07:52:52.502Z,14.25
2023-02-22T07:53:52.434Z,13.86
2023-02-22T07:54:52.484Z,14.33
2023-02-22T07:55:52.480Z,14.55
2023-02-22T07:56:52.466Z,14.43
2023-02-22T07:57:52.488Z,14.44
2023-02-22T07:58:52.486Z,14.43
2023-02-22T07:59:52.429Z,14.43
2023-02-22T08:00:52.425Z,14.40
2023-02-22T08:01:52.425Z,14.33
2023-02-22T08:02:52.415Z,14.30
2023-02-22T08:03:52.767Z,14.22
2023-02-22T08:04:52.396Z,14.14
2023-02-22T08:05:52.455Z,14.18
2023-02-22T08:06:52.424Z,13.87
2023-02-22T08:07:52.424Z,13.67
2023-02-22T08:08:52.401Z,13.72
2023-02-22T08:09:52.378Z,14.00
2023-02-22T08:10:52.400Z,14.23
2023-02-22T08:11:52.386Z,14.58
2023-02-22T08:12:52.395Z,15.10
2023-02-22T08:13:52.433Z,15.62
2023-02-22T08:14:52.399Z,15.72
2023-02-22T08:15:52.353Z,15.58
2023-02-22T08:16:52.373Z,15.82
2023-02-22T08:17:52.332Z,16.05
2023-02-22T08:18:52.356Z,16.09
2023-02-22T08:19:52.371Z,16.41
2023-02-22T08:20:52.334Z,16.57
2023-02-22T08:21:52.324Z,16.56
2023-02-22T08:22:52.341Z,16.56
2023-02-22T08:23:52.324Z,15.67
2023-02-22T08:24:52.338Z,15.47
2023-02-22T08:25:52.336Z,15.37
2023-02-22T08:26:52.293Z,15.67
2023-02-22T08:27:52.319Z,15.65
2023-02-22T08:28:52.277Z,15.67
2023-02-22T08:29:52.292Z,15.57
2023-02-22T08:30:52.413Z,15.75
2023-02-22T08:31:52.473Z,16.05
2023-02-22T08:32:52.432Z,16.08
2023-02-22T08:33:52.269Z,16.24
2023-02-22T08:34:52.294Z,16.47
2023-02-22T08:35:52.263Z,16.43
2023-02-22T08:36:52.240Z,16.43
2023-02-22T08:37:52.259Z,16.23
2023-02-22T08:38:52.247Z,16.16
2023-02-22T08:39:52.239Z,16.26
2023-02-22T08:40:52.218Z,16.16
2023-02-22T08:41:52.233Z,16.00
2023-02-22T08:42:52.218Z,15.86
2023-02-22T08:43:52.229Z,15.92
2023-02-22T08:44:52.199Z,16.20
2023-02-22T08:45:52.621Z,16.50
2023-02-22T08:46:52.248Z,16.86
2023-02-22T08:47:52.197Z,17.08
2023-02-22T08:48:52.201Z,17.24
2023-02-22T08:49:52.182Z,17.54
2023-02-22T08:50:52.187Z,17.67
2023-02-22T08:51:52.178Z,17.67
2023-02-22T08:52:52.193Z,17.56
2023-02-22T08:53:52.200Z,17.65
2023-02-22T08:54:52.192Z,17.68
2023-02-22T08:55:52.165Z,17.70
2023-02-22T08:56:52.152Z,17.23
2023-02-22T08:57:52.145Z,17.06
2023-02-22T08:58:52.144Z,17.11
2023-02-22T08:59:52.133Z,17.02
2023-02-22T09:00:52.134Z,17.08
2023-02-22T09:01:52.264Z,17.26
2023-02-22T09:02:52.155Z,17.45
2023-02-22T09:03:52.213Z,17.45
2023-02-22T09:04:52.118Z,17.29
2023-02-22T09:05:52.186Z,17.41
2023-02-22T09:06:52.161Z,17.57
2023-02-22T09:07:52.119Z,17.51
2023-02-22T09:08:52.134Z,17.65
2023-02-22T09:09:52.134Z,17.80
2023-02-22T09:10:52.105Z,17.34
2023-02-22T09:11:53.280Z,17.22
2023-02-22T09:12:52.085Z,17.23
2023-02-22T09:13:52.092Z,17.12
2023-02-22T09:14:52.070Z,17.30
2023-02-22T09:15:52.095Z,17.31
2023-02-22T09:16:52.118Z,17.46
2023-02-22T09:17:52.062Z,17.65
2023-02-22T09:18:52.068Z,17.14
2023-02-22T09:19:52.054Z,17.22
2023-02-22T09:20:52.052Z,17.65
2023-02-22T09:21:52.051Z,17.67
2023-02-22T09:22:52.053Z,17.86
2023-02-22T09:23:52.074Z,18.13
2023-02-22T09:24:52.049Z,18.25
2023-02-22T09:25:52.061Z,18.50
2023-02-22T09:26:52.024Z,18.16
2023-02-22T09:27:52.038Z,18.25
2023-02-22T09:29:38.510Z,18.08
2023-02-22T09:30:38.452Z,18.34
2023-02-22T09:31:38.497Z,18.23
2023-02-22T09:32:38.569Z,18.08
2023-02-22T09:33:38.311Z,18.01
2023-02-22T09:34:38.320Z,17.65
2023-02-22T09:35:38.318Z,17.20
2023-02-22T09:36:38.335Z,16.84
2023-02-22T09:37:38.320Z,16.79
2023-02-22T09:38:38.322Z,16.86
2023-02-22T09:39:38.328Z,16.58
2023-02-22T09:40:38.324Z,16.89
2023-02-22T09:41:38.358Z,17.01
2023-02-22T09:42:38.318Z,17.24
2023-02-22T09:43:38.364Z,17.38
2023-02-22T09:44:38.286Z,17.49
2023-02-22T09:45:38.398Z,17.65
2023-02-22T09:46:38.343Z,17.76
2023-02-22T09:47:38.334Z,17.67
2023-02-22T09:48:38.277Z,17.45
2023-02-22T09:49:38.350Z,17.39
2023-02-22T09:50:38.318Z,17.09
2023-02-22T09:51:38.318Z,16.93
2023-02-22T09:52:38.272Z,16.90
2023-02-22T09:53:38.276Z,16.83
2023-02-22T09:54:38.285Z,16.96
2023-02-22T09:55:38.268Z,17.06
2023-02-22T09:56:38.289Z,17.06
2023-02-22T09:57:38.310Z,17.23
2023-02-22T09:58:40.739Z,17.45
2023-02-22T09:59:38.268Z,17.42
2023-02-22T10:00:38.284Z,17.16
2023-02-22T10:01:38.257Z,17.06
2023-02-22T10:02:38.274Z,17.01
2023-02-22T10:03:38.295Z,16.71
2023-02-22T10:04:38.324Z,16.42
2023-02-22T10:05:38.358Z,16.26
2023-02-22T10:06:38.292Z,16.28
2023-02-22T10:07:38.331Z,16.29
2023-02-22T10:08:38.240Z,16.24
2023-02-22T10:09:38.278Z,15.92
2023-02-22T10:10:38.320Z,15.58
2023-02-22T10:11:38.273Z,15.06
2023-02-22T10:12:38.307Z,15.40
2023-02-22T10:13:38.261Z,15.58
2023-02-22T10:14:38.251Z,15.35
2023-02-22T10:15:38.194Z,15.28
2023-02-22T10:16:38.259Z,14.99
2023-02-22T10:17:38.235Z,15.11
2023-02-22T10:18:38.241Z,15.35
2023-02-22T10:19:38.224Z,15.04
2023-02-22T10:20:38.184Z,14.89
2023-02-22T10:21:38.195Z,14.68
2023-02-22T10:22:38.242Z,14.78
2023-02-22T10:23:38.201Z,14.89
2023-02-22T10:24:38.186Z,15.02
2023-02-22T10:25:38.218Z,14.91
2023-02-22T10:26:38.199Z,14.91
2023-02-22T10:27:38.191Z,14.88
2023-02-22T10:28:38.176Z,14.94
2023-02-22T10:29:38.168Z,15.00
2023-02-22T10:30:38.207Z,15.00
2023-02-22T10:31:38.211Z,15.03
2023-02-22T10:32:38.181Z,15.22
2023-02-22T10:33:38.196Z,15.47
2023-02-22T10:34:38.127Z,15.54
2023-02-22T10:35:38.139Z,15.51
2023-02-22T10:36:38.128Z,15.55
2023-02-22T10:37:38.230Z,15.64
2023-02-22T10:38:38.142Z,15.31
2023-02-22T10:39:38.149Z,15.22
2023-02-22T10:40:38.148Z,15.28
2023-02-22T10:41:38.084Z,15.25
2023-02-22T10:42:38.102Z,15.43
2023-02-22T10:43:38.073Z,15.54
2023-02-22T10:44:38.112Z,15.52
2023-02-22T10:45:38.075Z,15.51
2023-02-22T10:46:38.047Z,15.54
2023-02-22T10:47:38.049Z,15.44
2023-02-22T10:48:38.037Z,15.35
2023-02-22T10:49:38.079Z,15.24
2023-02-22T10:50:38.052Z,15.31
2023-02-22T10:51:38.042Z,15.61
2023-02-22T10:52:38.021Z,15.61
2023-02-22T10:53:38.057Z,15.61
2023-02-22T10:54:38.025Z,15.61
2023-02-22T10:55:38.094Z,15.75
2023-02-22T10:56:37.978Z,15.65
2023-02-22T10:57:38.000Z,15.58
2023-02-22T10:58:38.000Z,15.65
2023-02-22T10:59:37.984Z,15.77
2023-02-22T11:00:37.976Z,15.76
2023-02-22T11:01:38.036Z,15.98
2023-02-22T11:02:37.977Z,16.09
2023-02-22T11:03:37.953Z,16.15
2023-02-22T11:04:38.032Z,15.65
2023-02-22T11:05:37.967Z,15.51
2023-02-22T11:06:37.954Z,15.47
2023-02-22T11:07:37.944Z,15.39
2023-02-22T11:08:37.941Z,15.36
2023-02-22T11:09:37.918Z,15.33
2023-02-22T11:10:37.931Z,15.35
2023-02-22T11:11:37.900Z,15.39
2023-02-22T11:12:37.908Z,15.47
2023-02-22T11:13:37.867Z,15.43
2023-02-22T11:14:37.893Z,15.61
2023-02-22T11:15:37.856Z,15.59
2023-02-22T11:16:37.951Z,15.40
2023-02-22T11:17:37.869Z,15.43
2023-02-22T11:18:37.842Z,15.33
2023-02-22T11:19:37.834Z,15.33
2023-02-22T11:20:37.829Z,15.42
2023-02-22T11:21:37.818Z,15.47
2023-02-22T11:22:37.838Z,15.67
2023-02-22T11:23:37.839Z,15.82
2023-02-22T11:24:48.659Z,15.62
2023-02-22T11:25:37.821Z,15.58
2023-02-22T11:26:37.844Z,15.61
2023-02-22T11:27:37.803Z,15.70
2023-02-22T11:28:37.798Z,15.65
2023-02-22T11:29:37.797Z,15.72
2023-02-22T11:30:37.917Z,15.65
2023-02-22T11:31:38.026Z,15.64
2023-02-22T11:32:37.767Z,15.72
2023-02-22T11:33:37.789Z,15.82
2023-02-22T11:34:37.755Z,15.88
2023-02-22T11:35:37.758Z,15.90
2023-02-22T11:36:37.814Z,15.62
2023-02-22T11:37:37.735Z,15.46
2023-02-22T11:38:37.756Z,15.40
2023-02-22T11:39:37.767Z,15.47
2023-02-22T11:40:37.755Z,15.58
2023-02-22T11:41:37.692Z,15.36
2023-02-22T11:42:37.688Z,15.40
2023-02-22T11:43:37.682Z,15.42
2023-02-22T11:44:37.661Z,15.44
2023-02-22T11:45:44.086Z,15.47
2023-02-22T11:46:37.718Z,15.47
2023-02-22T11:47:37.645Z,15.64
2023-02-22T11:48:37.636Z,15.67
2023-02-22T11:49:37.619Z,15.86
2023-02-22T11:50:37.625Z,15.84
2023-02-22T11:51:37.621Z,15.92
2023-02-22T11:52:37.634Z,15.92
2023-02-22T11:53:37.617Z,16.04
2023-02-22T11:54:37.594Z,16.12
2023-02-22T11:55:43.048Z,15.95
2023-02-22T11:56:38.505Z,15.77
2023-02-22T11:57:37.574Z,15.84
2023-02-22T11:58:37.586Z,16.00
2023-02-22T11:59:37.561Z,16.04
2023-02-22T12:00:37.554Z,16.01
2023-02-22T12:01:37.551Z,16.12
2023-02-22T12:02:39.948Z,16.15
2023-02-22T12:03:37.708Z,15.98
2023-02-22T12:04:38.133Z,16.10
2023-02-22T12:05:37.527Z,16.04
2023-02-22T12:06:37.531Z,16.10
2023-02-22T12:07:37.520Z,16.29
2023-02-22T12:08:37.516Z,16.28
2023-02-22T12:09:37.505Z,16.50
2023-02-22T12:10:37.494Z,16.42
2023-02-22T12:11:37.512Z,16.41
2023-02-22T12:12:37.492Z,16.43
2023-02-22T12:13:37.493Z,16.50
2023-02-22T12:14:37.529Z,16.46
2023-02-22T12:15:37.506Z,16.60
2023-02-22T12:16:37.494Z,16.43
2023-02-22T12:17:38.113Z,16.39
2023-02-22T12:18:37.442Z,16.32
2023-02-22T12:19:37.458Z,16.46
2023-02-22T12:20:37.450Z,16.51
2023-02-22T12:21:37.452Z,16.49
2023-02-22T12:22:37.421Z,16.65
2023-02-22T12:23:37.412Z,16.76
2023-02-22T12:24:37.413Z,16.79
2023-02-22T12:25:37.406Z,16.86
2023-02-22T12:26:37.396Z,16.83
2023-02-22T12:27:37.424Z,16.76
2023-02-22T12:28:37.486Z,16.58
2023-02-22T12:29:37.378Z,16.61
2023-02-22T12:30:37.481Z,16.56
2023-02-22T12:31:37.517Z,16.65
2023-02-22T12:32:37.384Z,16.57
2023-02-22T12:33:37.414Z,16.47
2023-02-22T12:34:37.392Z,16.39
2023-02-22T12:35:37.484Z,16.41
2023-02-22T12:36:37.353Z,16.39
2023-02-22T12:37:37.327Z,16.41
2023-02-22T12:38:37.336Z,16.46
2023-02-22T12:39:51.831Z,16.46
2023-02-22T12:40:37.348Z,16.46
2023-02-22T12:41:37.562Z,16.47
2023-02-22T12:42:37.286Z,16.50
2023-02-22T12:43:37.283Z,16.51
2023-02-22T12:44:37.268Z,16.50
2023-02-22T12:45:37.274Z,16.51
2023-02-22T12:46:37.396Z,16.60
2023-02-22T12:47:37.262Z,16.60
2023-02-22T12:48:37.249Z,16.61
2023-02-22T12:49:37.263Z,16.46
2023-02-22T12:50:37.248Z,16.39
2023-02-22T12:51:37.242Z,16.39
2023-02-22T12:52:37.219Z,16.39
2023-02-22T12:53:37.218Z,16.31
2023-02-22T12:54:37.208Z,16.28
2023-02-22T12:55:37.244Z,16.26
2023-02-22T12:56:37.244Z,15.98
2023-02-22T12:57:37.198Z,16.00
2023-02-22T12:58:37.195Z,15.86
2023-02-22T12:59:37.188Z,15.88
2023-02-22T13:00:37.186Z,15.90
2023-02-22T13:01:37.214Z,15.68
2023-02-22T13:02:37.278Z,15.68
2023-02-22T13:03:37.175Z,15.82
2023-02-22T13:04:37.188Z,15.90
2023-02-22T13:05:37.185Z,15.97
2023-02-22T13:06:37.142Z,15.94
2023-02-22T13:07:37.146Z,15.90